createdAt,value
2022-10-04T00:00:23.851Z,6.92
2022-10-04T00:01:23.877Z,6.92
2022-10-04T00:02:23.973Z,6.89
2022-10-04T00:03:23.800Z,6.88
2022-10-04T00:04:23.799Z,6.84
2022-10-04T00:05:24.213Z,6.81
2022-10-04T00:06:23.769Z,6.81
2022-10-04T00:07:23.856Z,6.77
2022-10-04T00:08:24.260Z,6.76
2022-10-04T00:09:24.249Z,6.74
2022-10-04T00:10:23.728Z,6.71
2022-10-04T00:11:23.709Z,6.70
2022-10-04T00:12:23.695Z,6.70
2022-10-04T00:13:23.677Z,6.73
2022-10-04T00:14:24.109Z,6.71
2022-10-04T00:15:23.667Z,6.74
2022-10-04T00:16:23.687Z,6.73
2022-10-04T00:17:23.715Z,6.71
2022-10-04T00:18:23.645Z,6.71
2022-10-04T00:19:24.037Z,6.69
2022-10-04T00:20:23.596Z,6.67
2022-10-04T00:21:23.578Z,6.66
2022-10-04T00:22:23.587Z,6.64
2022-10-04T00:23:23.574Z,6.61
2022-10-04T00:24:23.634Z,6.59
2022-10-04T00:25:23.966Z,6.56
2022-10-04T00:26:23.534Z,6.54
2022-10-04T00:27:23.520Z,6.49
2022-10-04T00:28:23.562Z,6.46
2022-10-04T00:29:23.840Z,6.41
2022-10-04T00:30:23.493Z,6.40
2022-10-04T00:31:23.591Z,6.37
2022-10-04T00:32:23.484Z,6.33
2022-10-04T00:33:23.502Z,6.28
2022-10-04T00:34:26.889Z,6.28
2022-10-04T00:35:24.999Z,6.25
2022-10-04T00:36:23.421Z,6.27
2022-10-04T00:37:23.382Z,6.27
2022-10-04T00:38:23.376Z,6.28
2022-10-04T00:39:23.860Z,6.30
2022-10-04T00:40:23.359Z,6.31
2022-10-04T00:41:23.350Z,6.36
2022-10-04T00:42:23.349Z,6.37
2022-10-04T00:43:23.809Z,6.34
2022-10-04T00:44:23.649Z,6.34
2022-10-04T00:45:23.428Z,6.36
2022-10-04T00:46:23.355Z,6.34
2022-10-04T00:47:23.249Z,6.36
2022-10-04T00:48:26.611Z,6.36
2022-10-04T00:49:24.648Z,6.34
2022-10-04T00:50:23.208Z,6.34
2022-10-04T00:51:23.207Z,6.34
2022-10-04T00:52:23.187Z,6.36
2022-10-04T00:53:23.189Z,6.36
2022-10-04T00:54:23.166Z,6.36
2022-10-04T00:55:23.586Z,6.34
2022-10-04T00:56:23.135Z,6.36
2022-10-04T00:57:23.116Z,6.33
2022-10-04T00:58:23.118Z,6.33
2022-10-04T00:59:23.484Z,6.34
2022-10-04T01:00:23.091Z,6.33
2022-10-04T01:01:23.129Z,6.28
2022-10-04T01:02:23.125Z,6.28
2022-10-04T01:03:23.052Z,6.27
2022-10-04T01:04:23.462Z,6.25
2022-10-04T01:05:23.033Z,6.19
2022-10-04T01:06:23.004Z,6.17
2022-10-04T01:07:23.002Z,6.12
2022-10-04T01:08:22.982Z,6.11
2022-10-04T01:09:23.400Z,6.06
2022-10-04T01:10:22.961Z,6.06
2022-10-04T01:11:22.954Z,6.06
2022-10-04T01:12:22.932Z,6.04
2022-10-04T01:13:22.923Z,6.04
2022-10-04T01:14:23.316Z,6.03
2022-10-04T01:15:22.903Z,6.03
2022-10-04T01:16:22.930Z,6.04
2022-10-04T01:17:22.889Z,6.04
2022-10-04T01:18:22.880Z,6.06
2022-10-04T01:19:23.198Z,6.08
2022-10-04T01:20:22.830Z,6.06
2022-10-04T01:21:22.827Z,6.06
2022-10-04T01:22:22.802Z,6.06
2022-10-04T01:23:22.804Z,6.06
2022-10-04T01:24:23.210Z,6.06
2022-10-04T01:25:22.798Z,6.09
2022-10-04T01:26:22.765Z,6.12
2022-10-04T01:27:22.749Z,6.14
2022-10-04T01:28:22.841Z,6.15
2022-10-04T01:29:23.145Z,6.15
2022-10-04T01:30:22.720Z,6.15
2022-10-04T01:31:22.810Z,6.17
2022-10-04T01:32:22.680Z,6.17
2022-10-04T01:33:22.670Z,6.12
2022-10-04T01:34:23.019Z,6.08
2022-10-04T01:35:22.651Z,6.04
2022-10-04T01:36:22.626Z,6.01
2022-10-04T01:37:22.637Z,5.99
2022-10-04T01:38:22.606Z,6.00
2022-10-04T01:39:23.024Z,5.96
2022-10-04T01:40:22.587Z,5.96
2022-10-04T01:41:22.564Z,5.96
2022-10-04T01:42:22.556Z,5.94
2022-10-04T01:43:22.545Z,5.93
2022-10-04T01:44:22.526Z,5.90
2022-10-04T01:45:22.953Z,5.86
2022-10-04T01:46:22.572Z,5.83
2022-10-04T01:47:22.504Z,5.85
2022-10-04T01:48:22.502Z,5.83
2022-10-04T01:49:22.839Z,5.83
2022-10-04T01:50:22.544Z,5.82
2022-10-04T01:51:22.444Z,5.85
2022-10-04T01:52:22.423Z,5.85
2022-10-04T01:53:22.402Z,5.83
2022-10-04T01:54:22.771Z,5.82
2022-10-04T01:55:22.384Z,5.82
2022-10-04T01:56:22.375Z,5.81
2022-10-04T01:57:22.362Z,5.82
2022-10-04T01:58:22.352Z,5.83
2022-10-04T01:59:22.759Z,5.83
2022-10-04T02:00:22.330Z,5.83
2022-10-04T02:01:22.330Z,5.85
2022-10-04T02:02:22.310Z,5.83
2022-10-04T02:03:22.302Z,5.81
2022-10-04T02:04:22.878Z,5.81
2022-10-04T02:05:22.268Z,5.76
2022-10-04T02:06:22.250Z,5.74
2022-10-04T02:07:22.241Z,5.71
2022-10-04T02:08:22.235Z,5.65
2022-10-04T02:09:22.527Z,5.64
2022-10-04T02:10:22.197Z,5.61
2022-10-04T02:11:22.190Z,5.57
2022-10-04T02:12:22.186Z,5.53
2022-10-04T02:13:22.165Z,5.51
2022-10-04T02:14:22.166Z,5.45
2022-10-04T02:15:22.585Z,5.43
2022-10-04T02:16:22.171Z,5.42
2022-10-04T02:17:22.105Z,5.38
2022-10-04T02:18:22.094Z,5.35
2022-10-04T02:19:22.472Z,5.30
2022-10-04T02:20:22.079Z,5.28
2022-10-04T02:21:22.053Z,5.25
2022-10-04T02:22:22.057Z,5.24
2022-10-04T02:23:22.052Z,5.24
2022-10-04T02:24:22.352Z,5.25
2022-10-04T02:25:22.013Z,5.25
2022-10-04T02:26:21.992Z,5.28
2022-10-04T02:27:21.986Z,5.27
2022-10-04T02:28:22.040Z,5.27
2022-10-04T02:29:22.380Z,5.25
2022-10-04T02:30:21.944Z,5.25
2022-10-04T02:31:22.017Z,5.22
2022-10-04T02:32:21.971Z,5.21
2022-10-04T02:33:21.911Z,5.21
2022-10-04T02:34:21.908Z,5.22
2022-10-04T02:35:22.313Z,5.24
2022-10-04T02:36:21.860Z,5.22
2022-10-04T02:37:21.848Z,5.24
2022-10-04T02:38:21.856Z,5.22
2022-10-04T02:39:22.199Z,5.22
2022-10-04T02:40:21.809Z,5.21
2022-10-04T02:41:21.798Z,5.24
2022-10-04T02:42:21.814Z,5.25
2022-10-04T02:43:21.780Z,5.25
2022-10-04T02:44:22.200Z,5.28
2022-10-04T02:45:21.762Z,5.31
2022-10-04T02:46:21.795Z,5.33
2022-10-04T02:47:21.736Z,5.36
2022-10-04T02:48:21.716Z,5.40
2022-10-04T02:49:22.137Z,5.43
2022-10-04T02:50:21.698Z,5.46
2022-10-04T02:51:21.687Z,5.48
2022-10-04T02:52:21.669Z,5.46
2022-10-04T02:53:21.644Z,5.49
2022-10-04T02:54:21.634Z,5.51
2022-10-04T02:55:22.016Z,5.53
2022-10-04T02:56:21.614Z,5.53
2022-10-04T02:57:21.602Z,5.57
2022-10-04T02:58:21.593Z,5.61
2022-10-04T02:59:22.013Z,5.63
2022-10-04T03:00:21.564Z,5.64
2022-10-04T03:01:21.612Z,5.72
2022-10-04T03:02:29.003Z,5.74
2022-10-04T03:03:22.539Z,5.74
2022-10-04T03:04:21.943Z,5.76
2022-10-04T03:05:21.511Z,5.78
2022-10-04T03:06:21.481Z,5.78
2022-10-04T03:07:21.472Z,5.81
2022-10-04T03:08:21.457Z,5.81
2022-10-04T03:09:25.056Z,5.78
2022-10-04T03:10:22.437Z,5.75
2022-10-04T03:11:21.418Z,5.75
2022-10-04T03:12:21.412Z,5.76
2022-10-04T03:13:21.405Z,5.74
2022-10-04T03:14:21.740Z,5.75
2022-10-04T03:15:21.379Z,5.72
2022-10-04T03:16:21.464Z,5.74
2022-10-04T03:17:21.397Z,5.72
2022-10-04T03:18:21.336Z,5.71
2022-10-04T03:19:21.797Z,5.72
2022-10-04T03:20:21.424Z,5.71
2022-10-04T03:21:21.307Z,5.74
2022-10-04T03:22:21.283Z,5.72
2022-10-04T03:23:21.287Z,5.74
2022-10-04T03:24:21.253Z,5.72
2022-10-04T03:25:21.685Z,5.71
2022-10-04T03:26:21.235Z,5.67
2022-10-04T03:27:21.226Z,5.65
2022-10-04T03:28:21.275Z,5.65
2022-10-04T03:29:21.595Z,5.63
2022-10-04T03:30:21.185Z,5.60
2022-10-04T03:31:21.182Z,5.61
2022-10-04T03:32:21.162Z,5.60
2022-10-04T03:33:21.145Z,5.61
2022-10-04T03:34:21.514Z,5.63
2022-10-04T03:35:21.123Z,5.61
2022-10-04T03:36:21.111Z,5.60
2022-10-04T03:37:21.100Z,5.58
2022-10-04T03:38:21.089Z,5.60
2022-10-04T03:39:21.402Z,5.58
2022-10-04T03:40:21.055Z,5.61
2022-10-04T03:41:21.050Z,5.64
2022-10-04T03:42:21.030Z,5.65
2022-10-04T03:43:21.021Z,5.65
2022-10-04T03:44:20.998Z,5.65
2022-10-04T03:45:21.328Z,5.63
2022-10-04T03:46:20.978Z,5.63
2022-10-04T03:47:20.965Z,5.60
2022-10-04T03:48:20.956Z,5.64
2022-10-04T03:49:21.387Z,5.64
2022-10-04T03:50:20.931Z,5.63
2022-10-04T03:51:20.919Z,5.64
2022-10-04T03:52:20.907Z,5.68
2022-10-04T03:53:20.897Z,5.72
2022-10-04T03:54:20.876Z,5.74
2022-10-04T03:55:21.298Z,5.78
2022-10-04T03:56:20.847Z,5.75
2022-10-04T03:57:20.863Z,5.78
2022-10-04T03:58:20.828Z,5.81
2022-10-04T03:59:21.243Z,5.86
2022-10-04T04:00:21.514Z,5.89
2022-10-04T04:01:20.922Z,5.90
2022-10-04T04:02:20.842Z,5.90
2022-10-04T04:03:20.764Z,5.90
2022-10-04T04:04:20.781Z,5.93
2022-10-04T04:05:20.736Z,5.93
2022-10-04T04:06:20.714Z,5.93
2022-10-04T04:07:20.723Z,5.91
2022-10-04T04:08:20.692Z,5.90
2022-10-04T04:09:21.043Z,5.89
2022-10-04T04:10:20.672Z,5.90
2022-10-04T04:11:20.706Z,5.89
2022-10-04T04:12:20.641Z,5.90
2022-10-04T04:13:20.630Z,5.90
2022-10-04T04:14:20.632Z,5.90
2022-10-04T04:15:21.042Z,5.90
2022-10-04T04:16:20.637Z,5.91
2022-10-04T04:17:20.581Z,5.94
2022-10-04T04:18:21.310Z,5.90
2022-10-04T04:19:21.002Z,5.89
2022-10-04T04:20:20.562Z,5.89
2022-10-04T04:21:20.560Z,5.83
2022-10-04T04:22:20.519Z,5.82
2022-10-04T04:23:20.543Z,5.78
2022-10-04T04:24:20.917Z,5.74
2022-10-04T04:25:20.494Z,5.72
2022-10-04T04:26:20.467Z,5.74
2022-10-04T04:27:20.468Z,5.67
2022-10-04T04:28:20.501Z,5.67
2022-10-04T04:29:20.765Z,5.67
2022-10-04T04:30:20.426Z,5.64
2022-10-04T04:31:20.493Z,5.64
2022-10-04T04:32:20.405Z,5.64
2022-10-04T04:33:21.255Z,5.63
2022-10-04T04:34:20.715Z,5.61
2022-10-04T04:35:20.384Z,5.61
2022-10-04T04:36:20.375Z,5.58
2022-10-04T04:37:20.337Z,5.57
2022-10-04T04:38:20.311Z,5.58
2022-10-04T04:39:20.436Z,5.57
2022-10-04T04:40:20.292Z,5.57
2022-10-04T04:41:20.285Z,5.56
2022-10-04T04:42:20.268Z,5.56
2022-10-04T04:43:20.266Z,5.56
2022-10-04T04:44:20.689Z,5.56
2022-10-04T04:45:20.263Z,5.58
2022-10-04T04:46:27.591Z,5.57
2022-10-04T04:47:21.212Z,5.57
2022-10-04T04:48:20.192Z,5.56
2022-10-04T04:49:20.453Z,5.53
2022-10-04T04:50:20.173Z,5.49
2022-10-04T04:51:20.162Z,5.46
2022-10-04T04:52:20.148Z,5.45
2022-10-04T04:53:20.130Z,5.46
2022-10-04T04:54:20.141Z,5.48
2022-10-04T04:55:20.428Z,5.48
2022-10-04T04:56:20.095Z,5.45
2022-10-04T04:57:20.102Z,5.43
2022-10-04T04:58:20.091Z,5.42
2022-10-04T04:59:20.405Z,5.40
2022-10-04T05:00:20.038Z,5.40
2022-10-04T05:01:20.156Z,5.40
2022-10-04T05:02:20.064Z,5.39
2022-10-04T05:03:20.018Z,5.36
2022-10-04T05:04:20.010Z,5.36
2022-10-04T05:05:19.997Z,5.36
2022-10-04T05:06:19.991Z,5.35
2022-10-04T05:07:20.005Z,5.33
2022-10-04T05:08:19.945Z,5.33
2022-10-04T05:09:20.228Z,5.31
2022-10-04T05:10:19.939Z,5.28
2022-10-04T05:11:19.902Z,5.25
2022-10-04T05:12:19.891Z,5.25
2022-10-04T05:13:19.873Z,5.25
2022-10-04T05:14:19.861Z,5.24
2022-10-04T05:15:20.171Z,5.24
2022-10-04T05:16:19.926Z,5.18
2022-10-04T05:17:19.835Z,5.13
2022-10-04T05:18:19.813Z,5.09
2022-10-04T05:19:20.255Z,5.04
2022-10-04T05:20:19.796Z,5.02
2022-10-04T05:21:19.788Z,4.99
2022-10-04T05:22:19.767Z,5.00
2022-10-04T05:23:19.766Z,5.02
2022-10-04T05:24:20.182Z,5.04
2022-10-04T05:25:19.720Z,5.06
2022-10-04T05:26:19.736Z,5.03
2022-10-04T05:27:19.691Z,5.02
2022-10-04T05:28:19.752Z,4.99
2022-10-04T05:29:20.007Z,5.02
2022-10-04T05:30:19.661Z,5.07
2022-10-04T05:31:19.657Z,5.12
2022-10-04T05:32:19.657Z,5.18
2022-10-04T05:33:19.621Z,5.20
2022-10-04T05:34:20.052Z,5.24
2022-10-04T05:35:19.594Z,5.27
2022-10-04T05:36:19.577Z,5.27
2022-10-04T05:37:19.578Z,5.27
2022-10-04T05:38:19.557Z,5.27
2022-10-04T05:39:19.895Z,5.25
2022-10-04T05:40:19.558Z,5.24
2022-10-04T05:41:19.517Z,5.25
2022-10-04T05:42:19.546Z,5.25
2022-10-04T05:43:19.485Z,5.25
2022-10-04T05:44:19.475Z,5.18
2022-10-04T05:45:19.839Z,5.15
2022-10-04T05:46:19.510Z,5.13
2022-10-04T05:47:19.444Z,5.13
2022-10-04T05:48:19.423Z,5.15
2022-10-04T05:49:19.843Z,5.15
2022-10-04T05:50:19.405Z,5.15
2022-10-04T05:51:19.403Z,5.15
2022-10-04T05:52:19.382Z,5.13
2022-10-04T05:53:19.360Z,5.15
2022-10-04T05:54:19.360Z,5.17
2022-10-04T05:55:19.718Z,5.22
2022-10-04T05:56:19.324Z,5.28
2022-10-04T05:57:19.320Z,5.31
2022-10-04T05:58:19.341Z,5.38
2022-10-04T05:59:19.690Z,5.40
2022-10-04T06:00:19.281Z,5.45
2022-10-04T06:01:19.343Z,5.49
2022-10-04T06:02:19.312Z,5.56
2022-10-04T06:03:19.257Z,5.61
2022-10-04T06:04:19.619Z,5.67
2022-10-04T06:05:19.295Z,5.72
2022-10-04T06:06:19.197Z,5.75
2022-10-04T06:07:19.223Z,5.76
2022-10-04T06:08:19.181Z,5.76
2022-10-04T06:09:19.517Z,5.76
2022-10-04T06:10:19.169Z,5.81
2022-10-04T06:11:19.167Z,5.86
2022-10-04T06:12:19.127Z,5.89
2022-10-04T06:13:19.109Z,5.90
2022-10-04T06:14:19.104Z,5.90
2022-10-04T06:15:19.528Z,5.90
2022-10-04T06:16:19.109Z,5.85
2022-10-04T06:17:19.071Z,5.83
2022-10-04T06:18:19.056Z,5.85
2022-10-04T06:19:19.371Z,5.93
2022-10-04T06:20:19.033Z,5.96
2022-10-04T06:21:19.007Z,6.01
2022-10-04T06:22:18.993Z,6.06
2022-10-04T06:23:18.982Z,6.08
2022-10-04T06:24:20.632Z,6.08
2022-10-04T06:25:18.962Z,6.12
2022-10-04T06:26:18.962Z,6.14
2022-10-04T06:27:18.942Z,6.17
2022-10-04T06:28:19.003Z,6.21
2022-10-04T06:29:18.952Z,6.27
2022-10-04T06:30:18.902Z,6.25
2022-10-04T06:31:19.078Z,6.28
2022-10-04T06:32:18.889Z,6.27
2022-10-04T06:33:18.860Z,6.27
2022-10-04T06:34:18.849Z,6.27
2022-10-04T06:35:19.272Z,6.25
2022-10-04T06:36:18.818Z,6.27
2022-10-04T06:37:18.808Z,6.28
2022-10-04T06:38:18.790Z,6.31
2022-10-04T06:39:19.212Z,6.33
2022-10-04T06:40:18.760Z,6.36
2022-10-04T06:41:18.752Z,6.33
2022-10-04T06:42:18.740Z,6.28
2022-10-04T06:43:18.728Z,6.27
2022-10-04T06:44:18.717Z,6.22
2022-10-04T06:45:18.727Z,6.18
2022-10-04T06:46:18.808Z,6.19
2022-10-04T06:47:18.674Z,6.27
2022-10-04T06:48:18.668Z,6.28
2022-10-04T06:49:19.089Z,6.31
2022-10-04T06:50:18.641Z,6.34
2022-10-04T06:51:18.639Z,6.38
2022-10-04T06:52:18.612Z,6.41
2022-10-04T06:53:18.597Z,6.43
2022-10-04T06:54:18.580Z,6.46
2022-10-04T06:55:19.002Z,6.48
2022-10-04T06:56:18.553Z,6.52
2022-10-04T06:57:18.546Z,6.59
2022-10-04T06:58:18.536Z,6.62
2022-10-04T06:59:18.856Z,6.64
2022-10-04T07:00:18.507Z,6.70
2022-10-04T07:01:18.538Z,6.80
2022-10-04T07:02:18.547Z,6.88
2022-10-04T07:03:18.475Z,6.91
2022-10-04T07:04:18.874Z,6.92
2022-10-04T07:05:18.449Z,6.97
2022-10-04T07:06:18.424Z,6.98
2022-10-04T07:07:18.411Z,7.06
2022-10-04T07:08:18.413Z,7.09
2022-10-04T07:09:18.694Z,7.13
2022-10-04T07:10:18.376Z,7.21
2022-10-04T07:11:18.353Z,7.24
2022-10-04T07:12:18.342Z,7.28
2022-10-04T07:13:18.341Z,7.37
2022-10-04T07:14:18.633Z,7.45
2022-10-04T07:15:18.308Z,7.50
2022-10-04T07:16:18.327Z,7.49
2022-10-04T07:17:18.281Z,7.48
2022-10-04T07:18:18.275Z,7.48
2022-10-04T07:19:18.571Z,7.57
2022-10-04T07:20:18.297Z,7.61
2022-10-04T07:21:18.239Z,7.68
2022-10-04T07:22:18.228Z,7.67
2022-10-04T07:23:18.211Z,7.63
2022-10-04T07:24:18.589Z,7.64
2022-10-04T07:25:18.181Z,7.69
2022-10-04T07:26:18.168Z,7.72
2022-10-04T07:27:18.167Z,7.69
2022-10-04T07:28:18.161Z,7.67
2022-10-04T07:29:18.449Z,7.69
2022-10-04T07:30:18.125Z,7.69
2022-10-04T07:31:18.154Z,7.71
2022-10-04T07:32:18.113Z,7.69
2022-10-04T07:33:18.077Z,7.69
2022-10-04T07:34:18.077Z,7.68
2022-10-04T07:35:18.366Z,7.64
2022-10-04T07:36:21.766Z,7.64
2022-10-04T07:37:18.043Z,7.68
2022-10-04T07:38:18.020Z,7.71
2022-10-04T07:39:18.334Z,7.74
2022-10-04T07:40:17.996Z,7.80
2022-10-04T07:41:17.978Z,7.80
2022-10-04T07:42:17.964Z,7.85
2022-10-04T07:43:17.962Z,7.89
2022-10-04T07:44:17.945Z,7.93
2022-10-04T07:45:18.388Z,7.87
2022-10-04T07:46:18.073Z,7.80
2022-10-04T07:47:17.904Z,7.75
2022-10-04T07:48:17.909Z,7.69
2022-10-04T07:49:18.194Z,7.57
2022-10-04T07:50:17.862Z,7.60
2022-10-04T07:51:17.854Z,7.58
2022-10-04T07:52:17.839Z,7.60
2022-10-04T07:53:17.836Z,7.69
2022-10-04T07:54:18.228Z,7.74
2022-10-04T07:55:17.798Z,7.82
2022-10-04T07:56:17.795Z,7.83
2022-10-04T07:57:17.783Z,7.86
2022-10-04T07:58:17.770Z,7.93
2022-10-04T07:59:18.090Z,8.07
2022-10-04T08:00:17.739Z,8.16
2022-10-04T08:01:17.733Z,8.22
2022-10-04T08:02:17.786Z,8.30
2022-10-04T08:03:17.757Z,8.40
2022-10-04T08:04:17.702Z,8.53
2022-10-04T08:05:18.102Z,8.71
2022-10-04T08:06:17.667Z,8.86
2022-10-04T08:07:17.649Z,9.01
2022-10-04T08:08:17.638Z,9.15
2022-10-04T08:09:17.659Z,9.31
2022-10-04T08:10:17.610Z,9.47
2022-10-04T08:11:17.597Z,9.60
2022-10-04T08:12:17.598Z,9.72
2022-10-04T08:13:17.566Z,9.79
2022-10-04T08:14:17.586Z,9.96
2022-10-04T08:15:17.576Z,10.08
2022-10-04T08:16:17.595Z,10.17
2022-10-04T08:17:17.530Z,10.18
2022-10-04T08:18:17.506Z,10.22
2022-10-04T08:19:17.943Z,10.26
2022-10-04T08:20:17.494Z,10.36
2022-10-04T08:21:18.063Z,10.45
2022-10-04T08:22:17.794Z,10.51
2022-10-04T08:23:17.464Z,10.53
2022-10-04T08:24:17.434Z,10.68
2022-10-04T08:25:17.854Z,10.73
2022-10-04T08:26:17.423Z,10.76
2022-10-04T08:27:17.404Z,10.82
2022-10-04T08:28:17.419Z,10.86
2022-10-04T08:29:17.800Z,11.00
2022-10-04T08:30:17.364Z,11.06
2022-10-04T08:31:17.431Z,11.09
2022-10-04T08:32:17.335Z,11.21
2022-10-04T08:33:17.325Z,11.35
2022-10-04T08:34:17.755Z,11.46
2022-10-04T08:35:17.292Z,11.55
2022-10-04T08:36:17.286Z,11.55
2022-10-04T08:37:17.264Z,11.55
2022-10-04T08:38:17.262Z,11.60
2022-10-04T08:39:17.728Z,11.57
2022-10-04T08:40:17.231Z,11.55
2022-10-04T08:41:17.212Z,11.55
2022-10-04T08:42:17.191Z,11.49
2022-10-04T08:43:17.186Z,11.42
2022-10-04T08:44:17.221Z,11.35
2022-10-04T08:45:17.159Z,11.24
2022-10-04T08:46:17.220Z,11.22
2022-10-04T08:47:21.243Z,11.22
2022-10-04T08:48:17.119Z,11.11
2022-10-04T08:49:17.537Z,11.06
2022-10-04T08:50:17.091Z,11.06
2022-10-04T08:51:17.079Z,11.17
2022-10-04T08:52:17.065Z,11.15
2022-10-04T08:53:17.053Z,11.17
2022-10-04T08:54:17.087Z,11.18
2022-10-04T08:55:17.466Z,11.22
2022-10-04T08:56:17.010Z,11.29
2022-10-04T08:57:16.988Z,11.40
2022-10-04T08:58:16.990Z,11.46
2022-10-04T08:59:17.287Z,11.57
2022-10-04T09:00:17.040Z,11.57
2022-10-04T09:01:16.962Z,11.51
2022-10-04T09:02:17.018Z,11.47
2022-10-04T09:03:16.918Z,11.46
2022-10-04T09:04:17.131Z,11.54
2022-10-04T09:05:16.889Z,11.47
2022-10-04T09:06:16.872Z,11.46
2022-10-04T09:07:16.849Z,11.37
2022-10-04T09:08:16.848Z,11.27
2022-10-04T09:09:17.278Z,11.14
2022-10-04T09:10:16.837Z,11.04
2022-10-04T09:11:16.811Z,11.09
2022-10-04T09:12:16.796Z,11.10
2022-10-04T09:13:16.788Z,10.88
2022-10-04T09:14:16.772Z,10.66
2022-10-04T09:15:17.167Z,10.67
2022-10-04T09:16:16.848Z,10.76
2022-10-04T09:17:21.836Z,10.85
2022-10-04T09:18:17.716Z,10.97
2022-10-04T09:19:17.126Z,11.11
2022-10-04T09:20:37.370Z,11.22
2022-10-04T09:21:17.685Z,11.35
2022-10-04T09:22:17.116Z,11.47
2022-10-04T09:23:16.645Z,11.54
2022-10-04T09:24:17.036Z,11.47
2022-10-04T09:25:16.629Z,11.51
2022-10-04T09:26:16.614Z,11.62
2022-10-04T09:27:31.480Z,11.75
2022-10-04T09:28:17.727Z,11.83
2022-10-04T09:29:16.905Z,11.91
2022-10-04T09:30:16.568Z,12.04
2022-10-04T09:31:16.588Z,12.07
2022-10-04T09:32:16.546Z,12.07
2022-10-04T09:33:16.548Z,12.20
2022-10-04T09:34:16.933Z,12.29
2022-10-04T09:35:16.527Z,12.34
2022-10-04T09:36:16.487Z,12.46
2022-10-04T09:37:16.475Z,12.59
2022-10-04T09:38:16.456Z,12.64
2022-10-04T09:39:29.350Z,12.68
2022-10-04T09:40:17.453Z,12.67
2022-10-04T09:41:16.420Z,12.62
2022-10-04T09:42:16.392Z,12.71
2022-10-04T09:43:16.382Z,12.72
2022-10-04T09:44:16.701Z,12.75
2022-10-04T09:45:16.359Z,12.85
2022-10-04T09:46:16.382Z,12.97
2022-10-04T09:47:16.329Z,13.10
2022-10-04T09:48:23.334Z,13.22
2022-10-04T09:49:24.751Z,13.29
2022-10-04T09:50:16.293Z,13.44
2022-10-04T09:51:23.274Z,13.38
2022-10-04T09:52:23.262Z,13.15
2022-10-04T09:53:16.249Z,12.97
2022-10-04T09:54:16.693Z,12.62
2022-10-04T09:55:16.222Z,12.68
2022-10-04T09:56:23.227Z,12.77
2022-10-04T09:57:23.203Z,12.85
2022-10-04T09:58:23.192Z,12.92
2022-10-04T09:59:16.411Z,13.03
2022-10-04T10:00:16.152Z,13.11
2022-10-04T10:01:16.197Z,13.19
2022-10-04T10:02:16.227Z,13.36
2022-10-04T10:03:23.411Z,13.52
2022-10-04T10:04:16.101Z,13.69
2022-10-04T10:05:16.115Z,13.75
2022-10-04T10:06:16.076Z,13.81
2022-10-04T10:07:16.057Z,13.88
2022-10-04T10:08:16.075Z,14.00
2022-10-04T10:09:16.340Z,13.96
2022-10-04T10:10:16.026Z,14.00
2022-10-04T10:11:16.012Z,14.02
2022-10-04T10:12:16.008Z,14.04
2022-10-04T10:13:15.993Z,13.97
2022-10-04T10:14:15.979Z,14.03
2022-10-04T10:15:16.604Z,14.06
2022-10-04T10:16:15.990Z,13.99
2022-10-04T10:17:15.941Z,13.95
2022-10-04T10:18:15.959Z,14.04
2022-10-04T10:19:16.292Z,14.17
2022-10-04T10:20:15.900Z,14.28
2022-10-04T10:21:15.895Z,14.32
2022-10-04T10:22:15.872Z,14.39
2022-10-04T10:23:15.860Z,14.51
2022-10-04T10:24:16.280Z,14.60
2022-10-04T10:25:15.847Z,14.62
2022-10-04T10:26:15.838Z,14.62
2022-10-04T10:27:15.816Z,14.68
2022-10-04T10:28:15.836Z,14.72
2022-10-04T10:29:16.139Z,14.72
2022-10-04T10:30:15.772Z,14.70
2022-10-04T10:31:15.809Z,14.75
2022-10-04T10:32:15.749Z,14.83
2022-10-04T10:33:15.731Z,14.92
2022-10-04T10:34:16.088Z,15.03
2022-10-04T10:35:15.703Z,15.13
2022-10-04T10:36:15.702Z,15.17
2022-10-04T10:37:15.688Z,15.14
2022-10-04T10:38:15.665Z,15.21
2022-10-04T10:39:15.965Z,15.25
2022-10-04T10:40:15.638Z,15.31
2022-10-04T10:41:15.631Z,15.38
2022-10-04T10:42:15.676Z,15.38
2022-10-04T10:43:15.615Z,15.27
2022-10-04T10:44:16.035Z,15.09
2022-10-04T10:45:15.577Z,15.02
2022-10-04T10:46:15.659Z,14.91
2022-10-04T10:47:15.554Z,14.91
2022-10-04T10:48:15.529Z,14.91
2022-10-04T10:49:20.096Z,14.88
2022-10-04T10:50:16.516Z,14.80
2022-10-04T10:51:15.495Z,14.77
2022-10-04T10:52:15.483Z,14.84
2022-10-04T10:53:15.479Z,14.91
2022-10-04T10:54:15.903Z,14.96
2022-10-04T10:55:15.448Z,15.09
2022-10-04T10:56:15.437Z,15.19
2022-10-04T10:57:15.427Z,15.28
2022-10-04T10:58:15.407Z,15.34
2022-10-04T10:59:15.732Z,15.39
2022-10-04T11:00:15.383Z,15.44
2022-10-04T11:01:15.410Z,15.43
2022-10-04T11:02:15.550Z,15.38
2022-10-04T11:03:19.309Z,15.31
2022-10-04T11:04:17.460Z,15.32
2022-10-04T11:05:15.402Z,15.34
2022-10-04T11:06:15.302Z,15.36
2022-10-04T11:07:15.303Z,15.39
2022-10-04T11:08:15.328Z,15.39
2022-10-04T11:09:15.703Z,15.35
2022-10-04T11:10:15.286Z,15.36
2022-10-04T11:11:15.253Z,15.41
2022-10-04T11:12:15.245Z,15.46
2022-10-04T11:13:15.254Z,15.47
2022-10-04T11:14:15.641Z,15.53
2022-10-04T11:15:15.183Z,15.59
2022-10-04T11:16:15.281Z,15.62
2022-10-04T11:17:15.222Z,15.62
2022-10-04T11:18:15.152Z,15.62
2022-10-04T11:19:15.492Z,15.49
2022-10-04T11:20:15.142Z,15.50
2022-10-04T11:21:15.153Z,15.51
2022-10-04T11:22:15.109Z,15.53
2022-10-04T11:23:15.104Z,15.62
2022-10-04T11:24:15.087Z,15.74
2022-10-04T11:25:15.463Z,15.87
2022-10-04T11:26:15.061Z,15.96
2022-10-04T11:27:15.044Z,16.05
2022-10-04T11:28:15.091Z,16.11
2022-10-04T11:29:15.048Z,16.14
2022-10-04T11:30:15.050Z,16.05
2022-10-04T11:31:15.036Z,15.93
2022-10-04T11:32:14.980Z,15.94
2022-10-04T11:33:14.980Z,16.00
2022-10-04T11:34:16.904Z,16.11
2022-10-04T11:35:15.377Z,16.30
2022-10-04T11:36:14.920Z,16.34
2022-10-04T11:37:14.919Z,16.43
2022-10-04T11:38:14.891Z,16.49
2022-10-04T11:39:15.199Z,16.48
2022-10-04T11:40:14.865Z,16.48
2022-10-04T11:41:14.929Z,16.53
2022-10-04T11:42:14.927Z,16.52
2022-10-04T11:43:14.958Z,16.53
2022-10-04T11:44:14.823Z,16.58
2022-10-04T11:45:15.238Z,16.67
2022-10-04T11:46:14.851Z,16.78
2022-10-04T11:47:14.833Z,16.89
2022-10-04T11:48:15.316Z,16.96
2022-10-04T11:49:15.075Z,17.06
2022-10-04T11:50:14.737Z,17.11
2022-10-04T11:51:14.790Z,17.18
2022-10-04T11:52:14.742Z,17.15
2022-10-04T11:53:14.717Z,17.11
2022-10-04T11:54:14.698Z,17.06
2022-10-04T11:55:14.715Z,17.11
2022-10-04T11:56:14.695Z,17.14
2022-10-04T11:57:14.656Z,17.19
2022-10-04T11:58:14.644Z,17.18
2022-10-04T11:59:15.104Z,17.16
2022-10-04T12:00:14.606Z,17.15
2022-10-04T12:01:14.629Z,17.25
2022-10-04T12:02:14.593Z,17.41
2022-10-04T12:03:14.649Z,17.48
2022-10-04T12:04:14.717Z,17.51
2022-10-04T12:05:14.582Z,17.70
2022-10-04T12:06:14.547Z,17.79
2022-10-04T12:07:14.558Z,17.87
2022-10-04T12:08:14.509Z,17.92
2022-10-04T12:09:14.870Z,17.97
2022-10-04T12:10:14.486Z,18.07
2022-10-04T12:11:14.487Z,18.10
2022-10-04T12:12:14.455Z,18.10
2022-10-04T12:13:14.436Z,18.08
2022-10-04T12:14:14.458Z,18.12
2022-10-04T12:15:14.426Z,18.17
2022-10-04T12:16:14.480Z,18.14
2022-10-04T12:17:14.395Z,18.07
2022-10-04T12:18:14.378Z,17.97
2022-10-04T12:19:14.696Z,17.95
2022-10-04T12:20:14.360Z,18.02
2022-10-04T12:21:14.342Z,18.07
2022-10-04T12:22:14.327Z,18.26
2022-10-04T12:23:14.305Z,18.41
2022-10-04T12:24:14.747Z,18.51
2022-10-04T12:25:14.296Z,18.60
2022-10-04T12:26:19.026Z,18.52
2022-10-04T12:27:15.264Z,18.54
2022-10-04T12:28:14.340Z,18.65
2022-10-04T12:29:14.555Z,18.81
2022-10-04T12:30:14.242Z,18.99
2022-10-04T12:31:14.275Z,19.19
2022-10-04T12:32:14.196Z,19.22
2022-10-04T12:33:14.184Z,19.36
2022-10-04T12:34:14.169Z,19.14
2022-10-04T12:35:14.697Z,18.94
2022-10-04T12:36:14.156Z,19.04
2022-10-04T12:37:14.125Z,19.08
2022-10-04T12:38:14.127Z,19.14
2022-10-04T12:39:14.439Z,19.18
2022-10-04T12:40:14.206Z,19.14
2022-10-04T12:41:14.119Z,18.95
2022-10-04T12:42:14.082Z,18.85
2022-10-04T12:43:14.053Z,18.87
2022-10-04T12:44:14.046Z,18.90
2022-10-04T12:45:14.362Z,18.92
2022-10-04T12:46:14.065Z,18.82
2022-10-04T12:47:14.003Z,18.82
2022-10-04T12:48:13.992Z,18.90
2022-10-04T12:49:14.345Z,18.88
2022-10-04T12:50:13.954Z,18.90
2022-10-04T12:51:13.973Z,18.90
2022-10-04T12:52:13.943Z,18.69
2022-10-04T12:53:13.933Z,18.63
2022-10-04T12:54:13.911Z,18.58
2022-10-04T12:55:14.242Z,18.55
2022-10-04T12:56:13.893Z,18.62
2022-10-04T12:57:13.871Z,18.75
2022-10-04T12:58:13.866Z,18.90
2022-10-04T12:59:14.292Z,18.94
2022-10-04T13:00:13.833Z,18.99
2022-10-04T13:01:13.879Z,19.00
2022-10-04T13:02:13.878Z,19.04
2022-10-04T13:03:13.791Z,19.02
2022-10-04T13:04:13.790Z,19.06
2022-10-04T13:05:14.203Z,19.21
2022-10-04T13:06:13.753Z,19.25
2022-10-04T13:07:13.744Z,19.25
2022-10-04T13:08:13.739Z,19.18